sensor_id;sensor_type;location;lat;lon;timestamp;pressure;altitude;pressure_sealevel;temperature;humidity
55315;BME280;41619;42.816;23.226;2022-08-18T00:02:17;95349.84;;;17.25;66.96
55315;BME280;41619;42.816;23.226;2022-08-18T00:04:44;95338.34;;;17.26;66.77
55315;BME280;41619;42.816;23.226;2022-08-18T00:07:22;95350.56;;;17.29;66.93
55315;BME280;41619;42.816;23.226;2022-08-18T00:09:48;95343.47;;;17.32;66.89
55315;BME280;41619;42.816;23.226;2022-08-18T00:12:24;95342.63;;;17.35;66.87
55315;BME280;41619;42.816;23.226;2022-08-18T00:14:50;95346.97;;;17.36;66.86
55315;BME280;41619;42.816;23.226;2022-08-18T00:17:17;95344.19;;;17.36;66.97
55315;BME280;41619;42.816;23.226;2022-08-18T00:19:43;95343.41;;;17.35;67.07
55315;BME280;41619;42.816;23.226;2022-08-18T00:22:10;95335.91;;;17.36;67.02
55315;BME280;41619;42.816;23.226;2022-08-18T00:24:35;95342.63;;;17.35;67.17
55315;BME280;41619;42.816;23.226;2022-08-18T00:27:03;95335.53;;;17.34;67.35
55315;BME280;41619;42.816;23.226;2022-08-18T00:29:29;95343.88;;;17.30;67.34
55315;BME280;41619;42.816;23.226;2022-08-18T00:31:54;95344.25;;;17.29;67.38
55315;BME280;41619;42.816;23.226;2022-08-18T00:34:20;95343.88;;;17.30;67.38
55315;BME280;41619;42.816;23.226;2022-08-18T00:36:45;95341.91;;;17.31;67.27
55315;BME280;41619;42.816;23.226;2022-08-18T00:39:10;95349.41;;;17.30;67.45
55315;BME280;41619;42.816;23.226;2022-08-18T00:41:36;95351.38;;;17.30;67.27
55315;BME280;41619;42.816;23.226;2022-08-18T00:44:02;95358.09;;;17.29;67.38
55315;BME280;41619;42.816;23.226;2022-08-18T00:46:34;95354.53;;;17.28;67.45
55315;BME280;41619;42.816;23.226;2022-08-18T00:49:00;95351.78;;;17.28;67.58
55315;BME280;41619;42.816;23.226;2022-08-18T00:54:23;95361.28;;;17.27;67.59
55315;BME280;41619;42.816;23.226;2022-08-18T00:56:56;95355.38;;;17.25;67.54
55315;BME280;41619;42.816;23.226;2022-08-18T00:59:48;95355.41;;;17.21;67.78
55315;BME280;41619;42.816;23.226;2022-08-18T01:02:18;95356.22;;;17.18;67.78
55315;BME280;41619;42.816;23.226;2022-08-18T01:05:27;95357.47;;;17.14;67.89
55315;BME280;41619;42.816;23.226;2022-08-18T01:07:41;95357.88;;;17.09;68.29
55315;BME280;41619;42.816;23.226;2022-08-18T01:10:11;95358.31;;;17.07;68.30
55315;BME280;41619;42.816;23.226;2022-08-18T01:12:41;95352.00;;;17.07;68.06
55315;BME280;41619;42.816;23.226;2022-08-18T01:15:08;95358.72;;;17.06;68.47
55315;BME280;41619;42.816;23.226;2022-08-18T01:17:34;95363.09;;;17.03;68.48
55315;BME280;41619;42.816;23.226;2022-08-18T01:20:24;95359.53;;;17.03;68.59
55315;BME280;41619;42.816;23.226;2022-08-18T01:23:14;95363.09;;;17.03;68.55
55315;BME280;41619;42.816;23.226;2022-08-18T01:25:41;95356.78;;;17.03;68.53
55315;BME280;41619;42.816;23.226;2022-08-18T01:28:26;95357.97;;;17.02;68.52
55315;BME280;41619;42.816;23.226;2022-08-18T01:30:54;95359.56;;;16.99;68.59
55315;BME280;41619;42.816;23.226;2022-08-18T01:33:26;95360.41;;;16.96;68.77
55315;BME280;41619;42.816;23.226;2022-08-18T01:35:53;95357.25;;;16.94;68.85
55315;BME280;41619;42.816;23.226;2022-08-18T01:38:20;95362.41;;;16.92;69.06
55315;BME280;41619;42.816;23.226;2022-08-18T01:40:47;95360.44;;;16.89;68.98
55315;BME280;41619;42.816;23.226;2022-08-18T01:43:13;95363.25;;;16.85;69.03
55315;BME280;41619;42.816;23.226;2022-08-18T01:45:40;95357.38;;;16.80;68.94
55315;BME280;41619;42.816;23.226;2022-08-18T01:48:07;95358.59;;;16.75;69.15
55315;BME280;41619;42.816;23.226;2022-08-18T01:50:33;95353.91;;;16.69;68.99
55315;BME280;41619;42.816;23.226;2022-08-18T01:53:00;95350.75;;;16.63;69.09
55315;BME280;41619;42.816;23.226;2022-08-18T01:55:26;95350.81;;;16.59;69.09
55315;BME280;41619;42.816;23.226;2022-08-18T01:57:53;95356.72;;;16.54;69.05
55315;BME280;41619;42.816;23.226;2022-08-18T02:00:19;95354.41;;;16.49;69.04
55315;BME280;41619;42.816;23.226;2022-08-18T02:02:45;95352.09;;;16.44;68.98
55315;BME280;41619;42.816;23.226;2022-08-18T02:05:15;95364.34;;;16.40;69.01
55315;BME280;41619;42.816;23.226;2022-08-18T02:07:42;95363.19;;;16.33;69.10
55315;BME280;41619;42.816;23.226;2022-08-18T02:10:08;95365.19;;;16.29;69.25
55315;BME280;41619;42.816;23.226;2022-08-18T02:12:38;95364.84;;;16.24;69.21
55315;BME280;41619;42.816;23.226;2022-08-18T02:15:05;95364.47;;;16.22;69.44
55315;BME280;41619;42.816;23.226;2022-08-18T02:17:40;95370.00;;;16.22;69.68
55315;BME280;41619;42.816;23.226;2022-08-18T02:20:08;95368.81;;;16.19;69.80
55315;BME280;41619;42.816;23.226;2022-08-18T02:22:34;95364.50;;;16.18;69.80
55315;BME280;41619;42.816;23.226;2022-08-18T02:25:00;95362.53;;;16.19;69.83
55315;BME280;41619;42.816;23.226;2022-08-18T02:27:26;95363.31;;;16.16;70.08
55315;BME280;41619;42.816;23.226;2022-08-18T02:29:52;95359.38;;;16.13;70.24
55315;BME280;41619;42.816;23.226;2022-08-18T02:32:18;95356.63;;;16.13;70.27
55315;BME280;41619;42.816;23.226;2022-08-18T02:34:43;95357.41;;;16.14;70.36
55315;BME280;41619;42.816;23.226;2022-08-18T02:37:09;95352.66;;;16.14;70.49
55315;BME280;41619;42.816;23.226;2022-08-18T02:39:36;95356.63;;;16.13;70.37
55315;BME280;41619;42.816;23.226;2022-08-18T02:42:06;95362.13;;;16.13;70.35
55315;BME280;41619;42.816;23.226;2022-08-18T02:44:32;95357.81;;;16.12;70.60
55315;BME280;41619;42.816;23.226;2022-08-18T02:46:58;95359.00;;;16.11;70.61
55315;BME280;41619;42.816;23.226;2022-08-18T02:49:23;95361.78;;;16.08;70.69
55315;BME280;41619;42.816;23.226;2022-08-18T02:51:50;95363.38;;;16.05;70.62
55315;BME280;41619;42.816;23.226;2022-08-18T02:54:18;95357.09;;;16.01;70.82
55315;BME280;41619;42.816;23.226;2022-08-18T02:56:44;95351.97;;;15.99;70.95
55315;BME280;41619;42.816;23.226;2022-08-18T02:59:17;95360.25;;;15.99;70.94
55315;BME280;41619;42.816;23.226;2022-08-18T03:01:46;95353.94;;;15.99;70.66
55315;BME280;41619;42.816;23.226;2022-08-18T03:04:13;95351.19;;;15.95;70.89
55315;BME280;41619;42.816;23.226;2022-08-18T03:06:40;95359.50;;;15.92;70.90
55315;BME280;41619;42.816;23.226;2022-08-18T03:09:07;95368.19;;;15.90;70.87
55315;BME280;41619;42.816;23.226;2022-08-18T03:11:34;95365.03;;;15.88;70.93
55315;BME280;41619;42.816;23.226;2022-08-18T03:14:00;95361.09;;;15.86;71.10
55315;BME280;41619;42.816;23.226;2022-08-18T03:16:26;95373.34;;;15.85;71.14
55315;BME280;41619;42.816;23.226;2022-08-18T03:18:55;95365.88;;;15.82;71.10
55315;BME280;41619;42.816;23.226;2022-08-18T03:21:23;95365.44;;;15.80;70.99
55315;BME280;41619;42.816;23.226;2022-08-18T03:23:50;95371.78;;;15.77;70.87
55315;BME280;41619;42.816;23.226;2022-08-18T03:26:18;95373.38;;;15.70;71.07
55315;BME280;41619;42.816;23.226;2022-08-18T03:28:46;95372.22;;;15.68;70.95
55315;BME280;41619;42.816;23.226;2022-08-18T03:31:14;95376.56;;;15.65;71.12
55315;BME280;41619;42.816;23.226;2022-08-18T03:33:40;95368.31;;;15.62;71.09
55315;BME280;41619;42.816;23.226;2022-08-18T03:36:07;95373.00;;;15.61;71.39
55315;BME280;41619;42.816;23.226;2022-08-18T03:38:33;95374.97;;;15.61;71.21
55315;BME280;41619;42.816;23.226;2022-08-18T03:40:59;95378.94;;;15.60;71.24
55315;BME280;41619;42.816;23.226;2022-08-18T03:43:25;95376.97;;;15.60;71.19
55315;BME280;41619;42.816;23.226;2022-08-18T03:45:51;95381.28;;;15.58;71.25
55315;BME280;41619;42.816;23.226;2022-08-18T03:48:19;95385.22;;;15.57;71.56
55315;BME280;41619;42.816;23.226;2022-08-18T03:50:44;95382.06;;;15.55;71.39
55315;BME280;41619;42.816;23.226;2022-08-18T03:53:11;95380.53;;;15.47;71.24
55315;BME280;41619;42.816;23.226;2022-08-18T03:55:39;95384.09;;;15.40;71.12
55315;BME280;41619;42.816;23.226;2022-08-18T03:58:05;95385.69;;;15.30;71.18
55315;BME280;41619;42.816;23.226;2022-08-18T04:00:31;95386.88;;;15.22;71.05
55315;BME280;41619;42.816;23.226;2022-08-18T04:02:58;95379.41;;;15.19;71.10
55315;BME280;41619;42.816;23.226;2022-08-18T04:05:26;95396.31;;;15.21;71.76
55315;BME280;41619;42.816;23.226;2022-08-18T04:07:52;95397.91;;;15.22;71.59
55315;BME280;41619;42.816;23.226;2022-08-18T04:10:18;95407.38;;;15.28;71.76
55315;BME280;41619;42.816;23.226;2022-08-18T04:12:44;95404.19;;;15.33;71.65
55315;BME280;41619;42.816;23.226;2022-08-18T04:15:09;95403.78;;;15.38;71.82
55315;BME280;41619;42.816;23.226;2022-08-18T04:17:35;95409.69;;;15.44;71.92
55315;BME280;41619;42.816;23.226;2022-08-18T04:20:01;95416.00;;;15.48;71.73
55315;BME280;41619;42.816;23.226;2022-08-18T04:22:26;95411.66;;;15.51;71.99
55315;BME280;41619;42.816;23.226;2022-08-18T04:24:52;95408.09;;;15.54;72.03
55315;BME280;41619;42.816;23.226;2022-08-18T04:27:20;95409.63;;;15.58;72.10
55315;BME280;41619;42.816;23.226;2022-08-18T04:29:46;95411.25;;;15.63;72.24
55315;BME280;41619;42.816;23.226;2022-08-18T04:32:12;95415.56;;;15.67;72.30
55315;BME280;41619;42.816;23.226;2022-08-18T04:34:37;95414.75;;;15.74;72.32
55315;BME280;41619;42.816;23.226;2022-08-18T04:37:03;95425.78;;;15.81;72.11
55315;BME280;41619;42.816;23.226;2022-08-18T04:39:29;95422.19;;;15.88;72.18
55315;BME280;41619;42.816;23.226;2022-08-18T04:41:54;95422.16;;;15.95;72.21
55315;BME280;41619;42.816;23.226;2022-08-18T04:44:20;95426.50;;;16.03;72.25
55315;BME280;41619;42.816;23.226;2022-08-18T04:46:48;95432.75;;;16.11;72.09
55315;BME280;41619;42.816;23.226;2022-08-18T04:49:15;95429.56;;;16.19;71.99
55315;BME280;41619;42.816;23.226;2022-08-18T04:51:43;95422.03;;;16.27;72.05
55315;BME280;41619;42.816;23.226;2022-08-18T04:54:09;95421.97;;;16.34;71.93
55315;BME280;41619;42.816;23.226;2022-08-18T04:56:38;95423.13;;;16.44;71.80
55315;BME280;41619;42.816;23.226;2022-08-18T04:59:04;95427.00;;;16.53;71.57
55315;BME280;41619;42.816;23.226;2022-08-18T05:01:35;95426.56;;;16.62;71.71
55315;BME280;41619;42.816;23.226;2022-08-18T05:04:01;95423.34;;;16.71;71.56
55315;BME280;41619;42.816;23.226;2022-08-18T05:06:28;95420.53;;;16.81;71.55
55315;BME280;41619;42.816;23.226;2022-08-18T05:09:00;95422.81;;;16.90;71.36
55315;BME280;41619;42.816;23.226;2022-08-18T05:11:27;95424.72;;;17.00;71.23
55315;BME280;41619;42.816;23.226;2022-08-18T05:13:55;95425.81;;;17.10;71.28
55315;BME280;41619;42.816;23.226;2022-08-18T05:16:22;95426.94;;;17.19;71.10
55315;BME280;41619;42.816;23.226;2022-08-18T05:18:49;95437.50;;;17.28;71.06
55315;BME280;41619;42.816;23.226;2022-08-18T05:21:15;95440.19;;;17.39;71.06
55315;BME280;41619;42.816;23.226;2022-08-18T05:23:42;95447.22;;;17.47;70.99
55315;BME280;41619;42.816;23.226;2022-08-18T05:26:09;95448.34;;;17.56;70.67
55315;BME280;41619;42.816;23.226;2022-08-18T05:28:35;95432.44;;;17.64;70.64
55315;BME280;41619;42.816;23.226;2022-08-18T05:31:12;95439.09;;;17.74;70.23
55315;BME280;41619;42.816;23.226;2022-08-18T05:33:39;95433.84;;;17.83;70.15
55315;BME280;41619;42.816;23.226;2022-08-18T05:36:16;95446.00;;;17.93;69.88
55315;BME280;41619;42.816;23.226;2022-08-18T05:38:58;95444.28;;;18.02;69.70
55315;BME280;41619;42.816;23.226;2022-08-18T05:41:30;95439.44;;;18.13;69.94
55315;BME280;41619;42.816;23.226;2022-08-18T05:43:58;95447.19;;;18.26;69.68
55315;BME280;41619;42.816;23.226;2022-08-18T05:46:38;95440.72;;;18.36;69.62
55315;BME280;41619;42.816;23.226;2022-08-18T05:49:06;95434.63;;;18.48;69.59
55315;BME280;41619;42.816;23.226;2022-08-18T05:51:40;95437.25;;;18.59;69.50
55315;BME280;41619;42.816;23.226;2022-08-18T05:54:07;95433.56;;;18.69;69.02
55315;BME280;41619;42.816;23.226;2022-08-18T05:56:55;95425.47;;;18.82;68.99
55315;BME280;41619;42.816;23.226;2022-08-18T05:59:30;95430.75;;;18.99;68.58
55315;BME280;41619;42.816;23.226;2022-08-18T06:07:35;95433.53;;;19.46;68.03
55315;BME280;41619;42.816;23.226;2022-08-18T06:10:04;95430.09;;;19.62;67.83
55315;BME280;41619;42.816;23.226;2022-08-18T06:12:45;95436.19;;;19.77;67.46
55315;BME280;41619;42.816;23.226;2022-08-18T06:26:22;95424.28;;;20.55;64.66
55315;BME280;41619;42.816;23.226;2022-08-18T06:37:22;95421.78;;;21.30;62.84
55315;BME280;41619;42.816;23.226;2022-08-18T06:39:52;95421.00;;;21.45;62.61
55315;BME280;41619;42.816;23.226;2022-08-18T06:42:23;95418.63;;;21.60;62.23
55315;BME280;41619;42.816;23.226;2022-08-18T06:44:59;95418.94;;;21.79;61.97
55315;BME280;41619;42.816;23.226;2022-08-18T06:48:03;95417.25;;;21.97;61.52
55315;BME280;41619;42.816;23.226;2022-08-18T06:50:43;95410.31;;;22.18;61.28
55315;BME280;41619;42.816;23.226;2022-08-18T06:53:10;95410.13;;;22.38;60.54
55315;BME280;41619;42.816;23.226;2022-08-18T06:55:45;95411.16;;;22.57;60.19
55315;BME280;41619;42.816;23.226;2022-08-18T07:00:54;95404.75;;;22.98;59.03
55315;BME280;41619;42.816;23.226;2022-08-18T07:03:23;95398.91;;;23.18;58.68
55315;BME280;41619;42.816;23.226;2022-08-18T07:08:40;95386.34;;;23.61;57.99
55315;BME280;41619;42.816;23.226;2022-08-18T07:11:22;95394.63;;;23.86;57.82
